createdAt,value
2022-08-22T00:00:24.693Z,100.00
2022-08-22T00:02:42.146Z,86.32
2022-08-22T00:02:42.589Z,88.34
2022-08-22T00:02:44.824Z,85.38
2022-08-22T00:02:55.068Z,97.80
2022-08-22T00:03:01.016Z,87.55
2022-08-22T00:03:02.618Z,89.84
2022-08-22T00:03:12.287Z,100.00
2022-08-22T00:06:16.665Z,100.00
2022-08-22T00:09:06.032Z,99.76
2022-08-22T00:11:43.395Z,100.00
2022-08-22T00:14:22.274Z,100.00
2022-08-22T00:17:00.461Z,99.14
2022-08-22T00:19:44.754Z,99.75
2022-08-22T00:22:23.702Z,100.00
2022-08-22T00:25:22.800Z,100.00
2022-08-22T00:28:04.186Z,100.00
2022-08-22T00:30:45.015Z,100.00
2022-08-22T00:33:25.473Z,100.00
2022-08-22T00:36:09.307Z,99.71
2022-08-22T00:38:46.449Z,100.00
2022-08-22T00:41:38.459Z,100.00
2022-08-22T00:44:35.531Z,100.00
2022-08-22T00:47:44.602Z,100.00
2022-08-22T00:50:34.140Z,99.81
2022-08-22T00:53:23.863Z,99.35
2022-08-22T00:56:12.270Z,99.70
2022-08-22T00:59:17.945Z,99.49
2022-08-22T01:02:08.287Z,99.43
2022-08-22T01:04:50.646Z,99.25
2022-08-22T01:07:41.844Z,99.97
2022-08-22T01:10:29.207Z,100.00
2022-08-22T01:13:19.758Z,99.67
2022-08-22T01:16:05.349Z,100.00
2022-08-22T01:19:12.962Z,99.66
2022-08-22T01:22:16.907Z,99.99
2022-08-22T01:25:47.699Z,99.53
2022-08-22T01:28:56.261Z,99.82
2022-08-22T01:31:57.712Z,99.48
2022-08-22T01:34:55.080Z,98.81
2022-08-22T01:38:02.391Z,99.20
2022-08-22T01:41:14.016Z,99.53
2022-08-22T01:44:11.214Z,98.87
2022-08-22T01:46:51.904Z,98.15
2022-08-22T01:49:27.936Z,98.60
2022-08-22T01:52:07.631Z,98.90
2022-08-22T01:54:49.213Z,98.27
2022-08-22T01:57:22.829Z,98.62
2022-08-22T01:59:59.112Z,99.51
2022-08-22T02:02:56.675Z,99.24
2022-08-22T02:05:36.698Z,99.72
2022-08-22T02:08:22.156Z,100.00
2022-08-22T02:11:02.907Z,100.00
2022-08-22T02:13:49.143Z,100.00
2022-08-22T02:16:31.787Z,99.10
2022-08-22T02:19:29.251Z,98.86
2022-08-22T02:22:07.129Z,98.91
2022-08-22T02:24:51.114Z,99.33
2022-08-22T02:27:33.628Z,98.90
2022-08-22T02:30:09.651Z,99.30
2022-08-22T02:33:02.735Z,99.53
2022-08-22T02:35:39.404Z,99.63
2022-08-22T02:38:23.815Z,100.00
2022-08-22T02:41:08.459Z,100.00
2022-08-22T02:43:49.639Z,100.00
2022-08-22T02:46:29.736Z,100.00
2022-08-22T02:49:08.969Z,99.52
2022-08-22T02:51:51.584Z,100.00
2022-08-22T02:54:30.172Z,100.00
2022-08-22T02:57:14.844Z,100.00
2022-08-22T03:00:31.172Z,100.00
2022-08-22T03:03:17.218Z,100.00
2022-08-22T03:06:01.077Z,100.00
2022-08-22T03:08:37.747Z,100.00
2022-08-22T03:11:21.272Z,100.00
2022-08-22T03:14:03.213Z,100.00
2022-08-22T03:16:40.251Z,100.00
2022-08-22T03:19:19.289Z,100.00
2022-08-22T03:21:57.840Z,100.00
2022-08-22T03:24:38.328Z,100.00
2022-08-22T03:27:32.076Z,100.00
2022-08-22T03:30:10.939Z,100.00
2022-08-22T03:32:50.210Z,100.00
2022-08-22T03:35:34.203Z,100.00
2022-08-22T03:38:18.310Z,100.00
2022-08-22T03:41:15.731Z,100.00
2022-08-22T03:44:11.300Z,100.00
2022-08-22T03:47:10.177Z,100.00
2022-08-22T03:50:07.779Z,100.00
2022-08-22T03:53:18.845Z,100.00
2022-08-22T03:56:19.139Z,100.00
2022-08-22T03:59:15.050Z,100.00
2022-08-22T04:02:24.983Z,100.00
2022-08-22T04:05:34.657Z,100.00
2022-08-22T04:08:45.206Z,100.00
2022-08-22T04:11:58.901Z,100.00
2022-08-22T04:15:12.113Z,100.00
2022-08-22T04:18:12.252Z,100.00
2022-08-22T04:21:24.758Z,100.00
2022-08-22T04:24:18.935Z,100.00
2022-08-22T04:26:55.460Z,100.00
2022-08-22T04:29:33.578Z,100.00
2022-08-22T04:32:14.409Z,100.00
2022-08-22T04:34:52.463Z,100.00
2022-08-22T04:37:33.823Z,100.00
2022-08-22T04:40:13.866Z,100.00
2022-08-22T04:42:53.093Z,100.00
2022-08-22T04:45:33.026Z,100.00
2022-08-22T04:48:12.689Z,100.00
2022-08-22T04:50:52.535Z,100.00
2022-08-22T04:53:49.018Z,100.00
2022-08-22T04:56:31.391Z,100.00
2022-08-22T04:59:10.102Z,100.00
2022-08-22T05:01:46.132Z,100.00
2022-08-22T05:04:23.291Z,100.00
2022-08-22T05:07:02.355Z,100.00
2022-08-22T05:09:38.803Z,100.00
2022-08-22T05:12:18.045Z,100.00
2022-08-22T05:14:56.127Z,100.00
2022-08-22T05:17:31.875Z,100.00
2022-08-22T05:20:08.734Z,100.00
2022-08-22T05:22:45.835Z,100.00
2022-08-22T05:25:21.914Z,100.00
2022-08-22T05:28:06.560Z,100.00
2022-08-22T05:30:39.807Z,100.00
2022-08-22T05:33:19.237Z,100.00
2022-08-22T05:35:57.876Z,100.00
2022-08-22T05:38:34.951Z,100.00
2022-08-22T05:41:10.948Z,100.00
2022-08-22T05:43:45.150Z,100.00
2022-08-22T05:46:26.936Z,100.00
2022-08-22T05:49:02.529Z,100.00
2022-08-22T05:51:46.544Z,100.00
2022-08-22T05:54:33.668Z,100.00
2022-08-22T05:57:14.790Z,100.00
2022-08-22T05:59:53.682Z,100.00
2022-08-22T06:02:39.322Z,100.00
2022-08-22T06:05:12.586Z,100.00
2022-08-22T06:07:49.079Z,100.00
2022-08-22T06:10:27.026Z,100.00
2022-08-22T06:13:03.603Z,100.00
2022-08-22T06:15:45.608Z,100.00
2022-08-22T06:18:25.406Z,100.00
2022-08-22T06:21:01.879Z,100.00
2022-08-22T06:23:38.538Z,100.00
2022-08-22T06:26:20.759Z,100.00
2022-08-22T06:28:57.724Z,100.00
2022-08-22T06:31:34.339Z,100.00
2022-08-22T06:34:11.831Z,100.00
2022-08-22T06:36:48.126Z,100.00
2022-08-22T06:39:24.402Z,100.00
2022-08-22T06:42:00.849Z,100.00
2022-08-22T06:44:37.906Z,100.00
2022-08-22T06:47:16.467Z,100.00
2022-08-22T06:49:53.785Z,100.00
2022-08-22T06:52:29.978Z,100.00
2022-08-22T06:55:06.574Z,100.00
2022-08-22T06:57:44.671Z,100.00
2022-08-22T07:00:17.765Z,100.00
2022-08-22T07:02:56.846Z,100.00
2022-08-22T07:05:35.862Z,100.00
2022-08-22T07:08:11.454Z,100.00
2022-08-22T07:10:47.658Z,99.43
2022-08-22T07:13:20.966Z,98.44
2022-08-22T07:15:56.261Z,98.13
2022-08-22T07:18:30.819Z,97.48
2022-08-22T07:21:07.433Z,97.12
2022-08-22T07:23:47.446Z,96.23
2022-08-22T07:26:31.185Z,96.00
2022-08-22T07:29:13.288Z,95.98
2022-08-22T07:31:57.215Z,95.92
2022-08-22T07:34:42.582Z,93.79
2022-08-22T07:37:20.446Z,94.15
2022-08-22T07:40:00.767Z,93.16
2022-08-22T07:42:42.999Z,91.60
2022-08-22T07:45:29.825Z,90.39
2022-08-22T07:48:26.394Z,90.45
2022-08-22T07:51:03.021Z,90.31
2022-08-22T07:53:41.683Z,91.69
2022-08-22T07:56:19.090Z,88.40
2022-08-22T07:58:55.762Z,88.81
2022-08-22T08:01:29.693Z,89.19
2022-08-22T08:04:04.921Z,87.65
2022-08-22T08:06:37.815Z,84.43
2022-08-22T08:09:14.925Z,85.41
2022-08-22T08:11:51.590Z,83.94
2022-08-22T08:14:25.816Z,82.63
2022-08-22T08:17:03.631Z,82.78
2022-08-22T08:19:40.596Z,83.04
2022-08-22T08:22:17.002Z,81.33
2022-08-22T08:24:50.809Z,80.99
2022-08-22T08:27:44.411Z,79.79
2022-08-22T08:30:34.655Z,79.79
2022-08-22T08:33:24.730Z,79.46
2022-08-22T08:36:04.722Z,79.29
2022-08-22T08:38:44.714Z,80.91
2022-08-22T08:41:47.177Z,81.33
2022-08-22T08:44:38.122Z,82.45
2022-08-22T08:47:22.811Z,81.10
2022-08-22T08:50:10.250Z,80.50
2022-08-22T08:53:11.278Z,81.10
2022-08-22T08:55:50.566Z,79.96
2022-08-22T08:58:32.153Z,79.61
2022-08-22T09:01:44.849Z,79.18
2022-08-22T09:04:50.147Z,80.14
2022-08-22T09:07:57.288Z,78.59
2022-08-22T09:10:50.398Z,77.21
2022-08-22T09:13:48.916Z,77.78
2022-08-22T09:16:46.291Z,79.06
2022-08-22T09:19:53.370Z,77.45
2022-08-22T09:23:16.503Z,78.68
2022-08-22T09:25:55.900Z,76.79
2022-08-22T09:28:38.028Z,75.46
2022-08-22T09:31:46.479Z,78.24
2022-08-22T09:34:27.491Z,75.38
2022-08-22T09:37:14.117Z,75.22
2022-08-22T09:39:57.286Z,74.67
2022-08-22T09:42:39.514Z,75.03
2022-08-22T09:45:48.102Z,74.87
2022-08-22T09:48:36.755Z,74.65
2022-08-22T09:51:31.488Z,76.29
2022-08-22T09:54:32.936Z,73.23
2022-08-22T09:57:18.041Z,75.40
2022-08-22T10:00:22.357Z,74.67
2022-08-22T10:03:08.392Z,73.75
2022-08-22T10:05:46.945Z,75.31
2022-08-22T10:08:49.850Z,73.47
2022-08-22T10:11:26.658Z,72.59
2022-08-22T10:14:07.798Z,71.50
2022-08-22T10:16:56.734Z,72.80
2022-08-22T10:19:36.243Z,71.65
2022-08-22T10:22:20.515Z,73.80
2022-08-22T10:25:06.799Z,72.39
2022-08-22T10:27:55.347Z,73.30
2022-08-22T10:30:33.186Z,69.81
2022-08-22T10:33:13.960Z,70.28
2022-08-22T10:36:00.162Z,69.21
2022-08-22T10:38:46.815Z,69.08
2022-08-22T10:41:29.730Z,66.53
2022-08-22T10:44:08.469Z,65.36
2022-08-22T10:46:53.531Z,68.44
2022-08-22T10:49:33.678Z,64.69
2022-08-22T10:52:17.001Z,64.80
2022-08-22T10:54:56.130Z,63.55
2022-08-22T10:57:35.610Z,64.31
2022-08-22T11:00:17.099Z,63.97
2022-08-22T11:03:02.159Z,62.71
2022-08-22T11:05:39.787Z,60.81
2022-08-22T11:08:52.059Z,58.77
2022-08-22T11:11:37.830Z,61.11
2022-08-22T11:14:56.379Z,59.11
2022-08-22T11:18:07.683Z,58.71
2022-08-22T11:20:57.014Z,58.38
2022-08-22T11:23:41.310Z,58.97
2022-08-22T11:26:38.229Z,59.93
2022-08-22T11:29:43.549Z,59.27
2022-08-22T11:32:28.732Z,60.40
2022-08-22T11:35:09.052Z,59.22
2022-08-22T11:37:47.281Z,56.63
2022-08-22T11:40:30.502Z,59.00
2022-08-22T11:43:25.363Z,56.39
2022-08-22T11:46:02.358Z,56.14
2022-08-22T11:48:48.618Z,54.63
2022-08-22T11:51:49.572Z,53.91
2022-08-22T11:54:31.549Z,57.69
2022-08-22T11:57:08.065Z,55.53
2022-08-22T12:00:01.267Z,56.82
2022-08-22T12:02:47.447Z,56.82
2022-08-22T12:05:26.447Z,56.97
2022-08-22T12:08:09.782Z,55.91
2022-08-22T12:10:48.816Z,62.87
2022-08-22T12:13:37.539Z,65.21
2022-08-22T12:16:18.951Z,63.02
2022-08-22T12:19:01.006Z,62.47
2022-08-22T12:22:03.015Z,64.74
2022-08-22T12:25:02.745Z,63.23
2022-08-22T12:27:48.129Z,63.56
2022-08-22T12:30:33.486Z,63.10
2022-08-22T12:33:36.584Z,63.30
2022-08-22T12:36:26.561Z,63.93
2022-08-22T12:39:25.618Z,66.20
2022-08-22T12:42:25.663Z,67.98
2022-08-22T12:45:12.731Z,69.23
2022-08-22T12:48:00.942Z,71.02
2022-08-22T12:50:42.472Z,71.07
2022-08-22T12:53:33.608Z,72.07
2022-08-22T12:56:17.283Z,72.66
2022-08-22T12:59:21.020Z,73.75
2022-08-22T13:01:56.238Z,72.12
2022-08-22T13:04:33.773Z,74.29
2022-08-22T13:07:16.175Z,74.69
2022-08-22T13:09:52.514Z,76.59
2022-08-22T13:12:31.018Z,78.39
2022-08-22T13:15:16.444Z,78.81
2022-08-22T13:17:52.531Z,78.92
2022-08-22T13:20:30.808Z,79.46
2022-08-22T13:23:12.744Z,81.82
2022-08-22T13:26:02.970Z,82.64
2022-08-22T13:28:44.354Z,81.53
2022-08-22T13:31:23.509Z,78.53
2022-08-22T13:34:00.004Z,80.67
2022-08-22T13:36:42.735Z,81.28
2022-08-22T13:39:29.909Z,81.91
2022-08-22T14:00:05.775Z,93.90
2022-08-22T14:02:52.414Z,96.08
2022-08-22T14:05:32.383Z,95.48
2022-08-22T14:08:13.893Z,93.55
2022-08-22T14:10:55.256Z,92.11
2022-08-22T14:13:44.967Z,91.25
2022-08-22T14:16:24.376Z,91.74
2022-08-22T14:19:06.237Z,92.58
2022-08-22T14:21:42.926Z,94.58
2022-08-22T14:24:20.734Z,94.60
2022-08-22T14:27:05.279Z,93.25
2022-08-22T14:29:43.799Z,93.57
2022-08-22T14:32:36.839Z,93.29
2022-08-22T14:35:25.690Z,93.02
2022-08-22T14:38:27.274Z,92.20
2022-08-22T14:41:07.533Z,92.97
2022-08-22T14:43:54.711Z,92.22
2022-08-22T14:46:33.721Z,94.01
2022-08-22T14:49:26.238Z,92.19
2022-08-22T14:52:08.787Z,93.14
2022-08-22T14:54:42.532Z,96.92
2022-08-22T14:57:19.951Z,97.64
2022-08-22T14:59:53.378Z,96.84
2022-08-22T15:02:29.476Z,97.21
2022-08-22T15:05:17.022Z,96.51
2022-08-22T15:07:58.399Z,95.35
2022-08-22T15:10:33.390Z,94.50
2022-08-22T15:13:08.864Z,94.48
2022-08-22T15:15:53.309Z,95.05
2022-08-22T15:18:35.859Z,95.31
2022-08-22T15:21:12.348Z,95.79
2022-08-22T15:23:46.943Z,95.40
2022-08-22T15:26:25.581Z,95.52
2022-08-22T15:29:06.959Z,95.94
2022-08-22T15:31:46.445Z,96.39
2022-08-22T15:34:24.174Z,95.75
2022-08-22T15:37:28.803Z,95.68
2022-08-22T15:40:12.052Z,95.68
2022-08-22T15:42:48.599Z,94.78
2022-08-22T15:45:33.915Z,96.34
2022-08-22T15:48:09.330Z,97.26
2022-08-22T15:50:56.497Z,97.55
2022-08-22T15:53:33.645Z,97.87
2022-08-22T15:56:28.021Z,99.47
2022-08-22T15:59:29.367Z,100.00
2022-08-22T16:02:11.714Z,100.00
2022-08-22T16:04:49.955Z,100.00
2022-08-22T16:07:33.420Z,100.00
2022-08-22T16:10:27.086Z,100.00
2022-08-22T16:13:33.422Z,100.00
2022-08-22T16:16:10.482Z,100.00
2022-08-22T16:19:16.128Z,100.00
2022-08-22T16:22:11.513Z,100.00
2022-08-22T16:25:08.118Z,98.77
2022-08-22T16:27:56.316Z,99.46
2022-08-22T16:30:38.137Z,99.50
2022-08-22T16:33:27.070Z,99.05
2022-08-22T16:36:47.433Z,98.75
2022-08-22T16:39:38.139Z,98.76
2022-08-22T16:42:36.500Z,98.58
2022-08-22T16:45:17.303Z,97.96
2022-08-22T16:47:56.008Z,98.83
2022-08-22T16:50:35.688Z,99.57
2022-08-22T16:53:11.010Z,99.84
2022-08-22T16:56:07.423Z,100.00
2022-08-22T16:59:14.104Z,100.00
2022-08-22T17:02:14.252Z,99.40
2022-08-22T17:04:59.839Z,98.82
2022-08-22T17:07:46.976Z,98.31
2022-08-22T17:10:44.129Z,98.39
2022-08-22T17:13:39.923Z,98.58
2022-08-22T17:16:27.762Z,98.36
2022-08-22T17:19:16.876Z,98.79
2022-08-22T17:21:54.724Z,98.13
2022-08-22T17:24:35.517Z,97.84
2022-08-22T17:27:17.951Z,97.45
2022-08-22T17:30:00.378Z,96.53
2022-08-22T17:32:43.686Z,96.42
2022-08-22T17:35:32.829Z,95.91
2022-08-22T17:38:12.971Z,95.86
2022-08-22T17:40:55.290Z,96.24
2022-08-22T17:43:48.897Z,96.48
2022-08-22T17:46:34.974Z,96.85
2022-08-22T17:49:21.714Z,97.56
2022-08-22T17:52:05.999Z,97.88
2022-08-22T17:54:45.664Z,97.25
2022-08-22T17:57:28.156Z,96.69
2022-08-22T18:00:09.505Z,95.60
2022-08-22T18:02:47.147Z,94.69
2022-08-22T18:05:24.294Z,94.91
2022-08-22T18:08:05.600Z,95.36
2022-08-22T18:10:46.213Z,95.33
2022-08-22T18:13:32.951Z,95.47
2022-08-22T18:16:11.535Z,94.84
2022-08-22T18:18:51.140Z,95.21
2022-08-22T18:21:28.688Z,95.57
2022-08-22T18:24:15.480Z,95.56
2022-08-22T18:26:55.891Z,94.28
2022-08-22T18:29:39.025Z,92.69
2022-08-22T18:32:19.189Z,91.75
2022-08-22T18:35:02.608Z,92.13
2022-08-22T18:37:49.261Z,91.68
2022-08-22T18:40:30.318Z,93.93
2022-08-22T18:43:13.688Z,93.82
2022-08-22T18:46:03.593Z,95.26
2022-08-22T18:48:54.231Z,96.23
2022-08-22T18:51:35.282Z,96.69
2022-08-22T18:54:34.816Z,96.82
2022-08-22T18:57:23.001Z,97.18
2022-08-22T19:00:07.617Z,97.87
2022-08-22T19:03:04.055Z,98.54
2022-08-22T19:06:07.911Z,98.68
2022-08-22T19:09:10.690Z,98.39
2022-08-22T19:11:52.745Z,98.64
2022-08-22T19:14:51.815Z,97.39
2022-08-22T19:17:40.967Z,96.41
2022-08-22T19:20:43.044Z,97.36
2022-08-22T19:23:48.077Z,97.99
2022-08-22T19:26:28.305Z,98.38
2022-08-22T19:29:08.771Z,99.00
2022-08-22T19:31:48.475Z,99.39
2022-08-22T19:34:39.043Z,99.88
2022-08-22T19:37:33.314Z,98.21
2022-08-22T19:40:08.871Z,99.07
2022-08-22T19:42:43.465Z,100.00
2022-08-22T19:45:24.984Z,100.00
2022-08-22T19:48:06.522Z,100.00
2022-08-22T19:50:41.715Z,100.00
2022-08-22T19:53:34.090Z,100.00
2022-08-22T19:56:21.292Z,100.00
2022-08-22T19:59:06.524Z,100.00
2022-08-22T20:01:51.363Z,100.00
2022-08-22T20:04:56.614Z,100.00
2022-08-22T20:07:46.601Z,100.00
2022-08-22T20:10:29.519Z,100.00
2022-08-22T20:13:07.676Z,100.00
2022-08-22T20:16:15.892Z,100.00
2022-08-22T20:19:06.084Z,100.00
2022-08-22T20:21:49.310Z,100.00
2022-08-22T20:24:29.316Z,100.00
2022-08-22T20:27:14.031Z,100.00
2022-08-22T20:29:52.631Z,98.48
2022-08-22T20:32:25.944Z,99.61
2022-08-22T20:35:01.626Z,99.47
2022-08-22T20:38:05.462Z,99.43
2022-08-22T20:40:56.117Z,99.05
2022-08-22T20:43:35.284Z,98.72
2022-08-22T20:46:22.741Z,98.48
2022-08-22T20:48:56.814Z,97.92
2022-08-22T20:51:31.632Z,97.82
2022-08-22T20:54:16.612Z,97.87
2022-08-22T20:56:52.845Z,97.75
2022-08-22T20:59:35.015Z,97.73
2022-08-22T21:02:14.353Z,97.92
2022-08-22T21:04:52.797Z,98.44
2022-08-22T21:07:28.694Z,98.81
2022-08-22T21:10:23.970Z,98.95
2022-08-22T21:13:06.454Z,99.61
2022-08-22T21:15:41.567Z,99.76
2022-08-22T21:18:23.611Z,99.86
2022-08-22T21:21:07.045Z,100.00
2022-08-22T21:23:46.274Z,100.00
2022-08-22T21:26:25.884Z,100.00
2022-08-22T21:29:00.601Z,100.00
2022-08-22T21:31:36.571Z,100.00
2022-08-22T21:34:14.272Z,100.00
2022-08-22T21:36:50.271Z,100.00
2022-08-22T21:39:26.485Z,100.00
2022-08-22T21:42:10.600Z,99.80
2022-08-22T21:44:53.929Z,100.00
2022-08-22T21:47:31.594Z,100.00
2022-08-22T21:50:27.756Z,100.00
2022-08-22T21:53:04.262Z,100.00
2022-08-22T21:55:38.926Z,100.00
2022-08-22T21:58:37.261Z,100.00
2022-08-22T22:01:27.632Z,99.47
2022-08-22T22:04:00.243Z,100.00
2022-08-22T22:06:32.922Z,100.00
2022-08-22T22:09:05.857Z,100.00
2022-08-22T22:11:39.049Z,100.00
2022-08-22T22:14:12.134Z,100.00
2022-08-22T22:16:44.627Z,100.00
2022-08-22T22:19:17.054Z,100.00
2022-08-22T22:21:49.480Z,100.00
2022-08-22T22:24:21.956Z,100.00
2022-08-22T22:26:54.932Z,100.00
2022-08-22T22:29:28.303Z,100.00
2022-08-22T22:32:00.758Z,100.00
2022-08-22T22:34:33.138Z,100.00
2022-08-22T22:37:07.447Z,100.00
2022-08-22T22:39:40.345Z,100.00
2022-08-22T22:42:14.120Z,100.00
2022-08-22T22:44:47.625Z,100.00
2022-08-22T22:47:25.448Z,100.00
2022-08-22T22:49:57.991Z,100.00
2022-08-22T22:52:30.766Z,100.00
2022-08-22T22:55:04.355Z,99.72
2022-08-22T22:57:41.270Z,99.59
2022-08-22T23:00:17.163Z,100.00
2022-08-22T23:02:49.595Z,100.00
2022-08-22T23:05:22.266Z,100.00
2022-08-22T23:07:54.746Z,99.98
2022-08-22T23:10:28.638Z,100.00
2022-08-22T23:13:01.278Z,100.00
2022-08-22T23:15:34.340Z,100.00
2022-08-22T23:18:06.831Z,100.00
2022-08-22T23:20:39.231Z,100.00
2022-08-22T23:23:11.667Z,100.00
2022-08-22T23:25:44.076Z,100.00
2022-08-22T23:28:16.592Z,100.00
2022-08-22T23:30:49.689Z,100.00
2022-08-22T23:33:22.242Z,100.00
2022-08-22T23:35:59.407Z,100.00
2022-08-22T23:38:32.391Z,100.00
2022-08-22T23:41:09.674Z,100.00
2022-08-22T23:43:44.508Z,100.00
2022-08-22T23:46:20.733Z,100.00
2022-08-22T23:48:53.576Z,100.00
2022-08-22T23:51:27.103Z,100.00
2022-08-22T23:54:00.672Z,100.00
2022-08-22T23:56:35.655Z,100.00
2022-08-22T23:59:11.262Z,100.00
